sensor_id;sensor_type;location;lat;lon;timestamp;P1;durP1;ratioP1;P2;durP2;ratioP2
74152;SDS011;62505;46.070;14.492;2022-08-04T00:01:20;2.70;;;2.38;;
74152;SDS011;62505;46.070;14.492;2022-08-04T00:03:51;4.65;;;2.92;;
74152;SDS011;62505;46.070;14.492;2022-08-04T00:06:23;3.42;;;2.58;;
74152;SDS011;62505;46.070;14.492;2022-08-04T00:09:06;5.18;;;3.08;;
74152;SDS011;62505;46.070;14.492;2022-08-04T00:11:38;4.35;;;3.20;;
74152;SDS011;62505;46.070;14.492;2022-08-04T00:14:12;4.22;;;2.80;;
74152;SDS011;62505;46.070;14.492;2022-08-04T00:16:41;3.47;;;2.80;;
74152;SDS011;62505;46.070;14.492;2022-08-04T00:19:10;4.95;;;3.15;;
74152;SDS011;62505;46.070;14.492;2022-08-04T00:21:38;2.95;;;2.60;;
74152;SDS011;62505;46.070;14.492;2022-08-04T00:24:11;2.78;;;2.50;;
74152;SDS011;62505;46.070;14.492;2022-08-04T00:26:41;4.57;;;2.40;;
74152;SDS011;62505;46.070;14.492;2022-08-04T00:29:09;2.90;;;2.55;;
74152;SDS011;62505;46.070;14.492;2022-08-04T00:31:36;3.17;;;2.63;;
74152;SDS011;62505;46.070;14.492;2022-08-04T00:34:03;4.22;;;2.80;;
74152;SDS011;62505;46.070;14.492;2022-08-04T00:36:30;6.53;;;3.47;;
74152;SDS011;62505;46.070;14.492;2022-08-04T00:38:58;3.95;;;2.88;;
74152;SDS011;62505;46.070;14.492;2022-08-04T00:41:29;4.28;;;2.65;;
74152;SDS011;62505;46.070;14.492;2022-08-04T00:44:12;4.65;;;2.67;;
74152;SDS011;62505;46.070;14.492;2022-08-04T00:46:53;3.60;;;2.70;;
74152;SDS011;62505;46.070;14.492;2022-08-04T00:49:41;5.22;;;3.35;;
74152;SDS011;62505;46.070;14.492;2022-08-04T00:52:25;4.03;;;2.95;;
74152;SDS011;62505;46.070;14.492;2022-08-04T00:55:02;3.88;;;2.72;;
74152;SDS011;62505;46.070;14.492;2022-08-04T00:57:39;5.22;;;3.13;;
74152;SDS011;62505;46.070;14.492;2022-08-04T01:00:18;3.28;;;2.65;;
74152;SDS011;62505;46.070;14.492;2022-08-04T01:02:50;4.35;;;3.00;;
74152;SDS011;62505;46.070;14.492;2022-08-04T01:05:30;3.47;;;2.97;;
74152;SDS011;62505;46.070;14.492;2022-08-04T01:08:10;3.28;;;2.58;;
74152;SDS011;62505;46.070;14.492;2022-08-04T01:11:09;3.10;;;2.58;;
74152;SDS011;62505;46.070;14.492;2022-08-04T01:13:51;5.00;;;3.00;;
74152;SDS011;62505;46.070;14.492;2022-08-04T01:16:29;3.78;;;2.90;;
74152;SDS011;62505;46.070;14.492;2022-08-04T01:19:00;4.43;;;2.95;;
74152;SDS011;62505;46.070;14.492;2022-08-04T01:21:42;4.15;;;2.80;;
74152;SDS011;62505;46.070;14.492;2022-08-04T01:24:41;4.28;;;2.60;;
74152;SDS011;62505;46.070;14.492;2022-08-04T01:27:25;3.88;;;3.05;;
74152;SDS011;62505;46.070;14.492;2022-08-04T01:29:57;3.45;;;2.83;;
74152;SDS011;62505;46.070;14.492;2022-08-04T01:32:27;2.50;;;2.30;;
74152;SDS011;62505;46.070;14.492;2022-08-04T01:34:59;3.22;;;2.80;;
74152;SDS011;62505;46.070;14.492;2022-08-04T01:37:42;3.42;;;2.83;;
74152;SDS011;62505;46.070;14.492;2022-08-04T01:40:15;3.25;;;2.83;;
74152;SDS011;62505;46.070;14.492;2022-08-04T01:42:42;4.43;;;2.72;;
74152;SDS011;62505;46.070;14.492;2022-08-04T01:45:12;3.10;;;2.70;;
74152;SDS011;62505;46.070;14.492;2022-08-04T01:47:40;3.03;;;2.63;;
74152;SDS011;62505;46.070;14.492;2022-08-04T01:50:13;3.88;;;2.92;;
74152;SDS011;62505;46.070;14.492;2022-08-04T01:52:41;3.40;;;2.70;;
74152;SDS011;62505;46.070;14.492;2022-08-04T01:55:09;3.85;;;2.80;;
74152;SDS011;62505;46.070;14.492;2022-08-04T01:57:40;2.97;;;2.67;;
74152;SDS011;62505;46.070;14.492;2022-08-04T02:00:09;3.83;;;2.65;;
74152;SDS011;62505;46.070;14.492;2022-08-04T02:02:38;3.00;;;2.53;;
74152;SDS011;62505;46.070;14.492;2022-08-04T02:05:05;3.08;;;2.83;;
74152;SDS011;62505;46.070;14.492;2022-08-04T02:10:31;3.80;;;2.63;;
74152;SDS011;62505;46.070;14.492;2022-08-04T02:13:14;3.60;;;2.63;;
74152;SDS011;62505;46.070;14.492;2022-08-04T02:15:49;4.22;;;2.88;;
74152;SDS011;62505;46.070;14.492;2022-08-04T02:18:26;3.45;;;2.58;;
74152;SDS011;62505;46.070;14.492;2022-08-04T02:20:56;4.85;;;2.83;;
74152;SDS011;62505;46.070;14.492;2022-08-04T02:23:30;3.63;;;3.08;;
74152;SDS011;62505;46.070;14.492;2022-08-04T02:26:01;4.55;;;3.47;;
74152;SDS011;62505;46.070;14.492;2022-08-04T02:28:32;4.45;;;3.15;;
74152;SDS011;62505;46.070;14.492;2022-08-04T02:31:07;7.00;;;4.22;;
74152;SDS011;62505;46.070;14.492;2022-08-04T02:33:50;5.18;;;3.63;;
74152;SDS011;62505;46.070;14.492;2022-08-04T02:36:26;4.85;;;3.63;;
74152;SDS011;62505;46.070;14.492;2022-08-04T02:39:00;6.28;;;3.97;;
74152;SDS011;62505;46.070;14.492;2022-08-04T02:41:29;5.45;;;3.55;;
74152;SDS011;62505;46.070;14.492;2022-08-04T02:43:58;6.88;;;3.97;;
74152;SDS011;62505;46.070;14.492;2022-08-04T02:46:27;5.47;;;3.60;;
74152;SDS011;62505;46.070;14.492;2022-08-04T02:48:56;5.72;;;3.80;;
74152;SDS011;62505;46.070;14.492;2022-08-04T02:51:24;4.65;;;3.80;;
74152;SDS011;62505;46.070;14.492;2022-08-04T02:53:54;5.75;;;3.90;;
74152;SDS011;62505;46.070;14.492;2022-08-04T02:56:22;4.80;;;3.47;;
74152;SDS011;62505;46.070;14.492;2022-08-04T02:58:51;7.85;;;3.63;;
74152;SDS011;62505;46.070;14.492;2022-08-04T03:01:20;6.13;;;4.03;;
74152;SDS011;62505;46.070;14.492;2022-08-04T03:03:47;4.88;;;3.58;;
74152;SDS011;62505;46.070;14.492;2022-08-04T03:06:32;8.30;;;3.30;;
74152;SDS011;62505;46.070;14.492;2022-08-04T03:09:36;5.90;;;3.60;;
74152;SDS011;62505;46.070;14.492;2022-08-04T03:12:33;5.30;;;3.60;;
74152;SDS011;62505;46.070;14.492;2022-08-04T03:18:32;6.97;;;3.75;;
74152;SDS011;62505;46.070;14.492;2022-08-04T03:21:37;4.38;;;3.55;;
74152;SDS011;62505;46.070;14.492;2022-08-04T03:30:30;6.20;;;4.57;;
74152;SDS011;62505;46.070;14.492;2022-08-04T03:33:13;8.40;;;4.38;;
74152;SDS011;62505;46.070;14.492;2022-08-04T03:36:08;7.00;;;4.55;;
74152;SDS011;62505;46.070;14.492;2022-08-04T03:39:11;10.65;;;5.28;;
74152;SDS011;62505;46.070;14.492;2022-08-04T03:50:56;8.63;;;5.22;;
74152;SDS011;62505;46.070;14.492;2022-08-04T03:53:48;8.55;;;5.07;;
74152;SDS011;62505;46.070;14.492;2022-08-04T03:59:34;8.52;;;5.05;;
74152;SDS011;62505;46.070;14.492;2022-08-04T04:05:27;10.25;;;5.65;;
74152;SDS011;62505;46.070;14.492;2022-08-04T04:11:35;8.18;;;4.90;;
74152;SDS011;62505;46.070;14.492;2022-08-04T04:14:23;6.88;;;4.80;;
74152;SDS011;62505;46.070;14.492;2022-08-04T04:17:08;6.38;;;4.57;;
74152;SDS011;62505;46.070;14.492;2022-08-04T04:20:12;8.05;;;4.80;;
74152;SDS011;62505;46.070;14.492;2022-08-04T04:26:23;7.43;;;4.80;;
74152;SDS011;62505;46.070;14.492;2022-08-04T04:29:04;6.72;;;4.70;;
74152;SDS011;62505;46.070;14.492;2022-08-04T04:31:53;7.60;;;4.50;;
74152;SDS011;62505;46.070;14.492;2022-08-04T04:34:31;8.32;;;5.38;;
74152;SDS011;62505;46.070;14.492;2022-08-04T04:37:17;9.25;;;4.97;;
74152;SDS011;62505;46.070;14.492;2022-08-04T04:39:58;7.63;;;4.53;;
74152;SDS011;62505;46.070;14.492;2022-08-04T04:42:43;8.95;;;4.78;;
74152;SDS011;62505;46.070;14.492;2022-08-04T04:45:26;9.65;;;4.70;;
74152;SDS011;62505;46.070;14.492;2022-08-04T04:48:00;9.02;;;5.05;;
74152;SDS011;62505;46.070;14.492;2022-08-04T04:50:44;7.05;;;5.00;;
74152;SDS011;62505;46.070;14.492;2022-08-04T04:53:19;10.40;;;5.18;;
74152;SDS011;62505;46.070;14.492;2022-08-04T04:55:55;8.43;;;4.85;;
74152;SDS011;62505;46.070;14.492;2022-08-04T04:58:28;7.30;;;4.85;;
74152;SDS011;62505;46.070;14.492;2022-08-04T05:04:15;6.47;;;4.25;;
74152;SDS011;62505;46.070;14.492;2022-08-04T05:09:51;7.70;;;4.43;;
74152;SDS011;62505;46.070;14.492;2022-08-04T05:12:36;7.68;;;3.80;;
74152;SDS011;62505;46.070;14.492;2022-08-04T05:15:18;6.07;;;3.42;;
74152;SDS011;62505;46.070;14.492;2022-08-04T05:17:51;4.60;;;3.10;;
74152;SDS011;62505;46.070;14.492;2022-08-04T05:20:22;7.07;;;3.35;;
74152;SDS011;62505;46.070;14.492;2022-08-04T05:22:52;6.13;;;3.20;;
74152;SDS011;62505;46.070;14.492;2022-08-04T05:25:24;4.80;;;2.83;;
74152;SDS011;62505;46.070;14.492;2022-08-04T05:28:02;6.75;;;3.20;;
74152;SDS011;62505;46.070;14.492;2022-08-04T05:30:31;4.35;;;3.42;;
74152;SDS011;62505;46.070;14.492;2022-08-04T05:33:12;6.65;;;3.28;;
74152;SDS011;62505;46.070;14.492;2022-08-04T05:35:43;6.28;;;3.33;;
74152;SDS011;62505;46.070;14.492;2022-08-04T05:38:14;4.38;;;3.33;;
74152;SDS011;62505;46.070;14.492;2022-08-04T05:40:45;3.47;;;2.90;;
74152;SDS011;62505;46.070;14.492;2022-08-04T05:43:12;4.43;;;2.78;;
74152;SDS011;62505;46.070;14.492;2022-08-04T05:45:40;4.00;;;2.88;;
74152;SDS011;62505;46.070;14.492;2022-08-04T05:48:07;5.93;;;3.25;;
74152;SDS011;62505;46.070;14.492;2022-08-04T05:50:35;4.72;;;2.95;;
74152;SDS011;62505;46.070;14.492;2022-08-04T05:53:05;8.05;;;3.50;;
74152;SDS011;62505;46.070;14.492;2022-08-04T05:55:36;6.57;;;3.28;;
74152;SDS011;62505;46.070;14.492;2022-08-04T05:58:03;6.22;;;3.30;;
74152;SDS011;62505;46.070;14.492;2022-08-04T06:00:30;6.28;;;3.13;;
74152;SDS011;62505;46.070;14.492;2022-08-04T06:02:59;5.20;;;3.25;;
74152;SDS011;62505;46.070;14.492;2022-08-04T06:05:27;4.70;;;3.10;;
74152;SDS011;62505;46.070;14.492;2022-08-04T06:07:54;4.80;;;3.70;;
74152;SDS011;62505;46.070;14.492;2022-08-04T06:10:23;6.60;;;3.58;;
74152;SDS011;62505;46.070;14.492;2022-08-04T06:12:52;4.85;;;3.30;;
74152;SDS011;62505;46.070;14.492;2022-08-04T06:15:23;6.03;;;3.75;;
74152;SDS011;62505;46.070;14.492;2022-08-04T06:17:53;8.50;;;3.60;;
74152;SDS011;62505;46.070;14.492;2022-08-04T06:20:26;5.28;;;4.18;;
74152;SDS011;62505;46.070;14.492;2022-08-04T06:22:56;4.10;;;3.38;;
74152;SDS011;62505;46.070;14.492;2022-08-04T06:25:28;10.13;;;4.05;;
74152;SDS011;62505;46.070;14.492;2022-08-04T06:27:58;4.43;;;3.47;;
74152;SDS011;62505;46.070;14.492;2022-08-04T06:30:30;12.55;;;4.53;;
74152;SDS011;62505;46.070;14.492;2022-08-04T06:32:58;4.82;;;3.97;;
74152;SDS011;62505;46.070;14.492;2022-08-04T06:35:27;6.93;;;4.00;;
74152;SDS011;62505;46.070;14.492;2022-08-04T06:37:55;5.57;;;3.63;;
74152;SDS011;62505;46.070;14.492;2022-08-04T06:40:23;7.65;;;4.05;;
74152;SDS011;62505;46.070;14.492;2022-08-04T06:42:54;5.90;;;3.40;;
74152;SDS011;62505;46.070;14.492;2022-08-04T06:45:21;10.32;;;3.70;;
74152;SDS011;62505;46.070;14.492;2022-08-04T06:47:49;4.68;;;3.50;;
74152;SDS011;62505;46.070;14.492;2022-08-04T06:50:18;8.65;;;3.92;;
74152;SDS011;62505;46.070;14.492;2022-08-04T06:52:46;6.07;;;3.75;;
74152;SDS011;62505;46.070;14.492;2022-08-04T06:55:13;5.75;;;3.65;;
74152;SDS011;62505;46.070;14.492;2022-08-04T06:57:40;8.75;;;3.60;;
74152;SDS011;62505;46.070;14.492;2022-08-04T07:00:10;4.80;;;3.72;;
74152;SDS011;62505;46.070;14.492;2022-08-04T07:02:40;6.03;;;4.40;;
74152;SDS011;62505;46.070;14.492;2022-08-04T07:05:10;6.45;;;3.70;;
74152;SDS011;62505;46.070;14.492;2022-08-04T07:07:37;7.28;;;4.10;;
74152;SDS011;62505;46.070;14.492;2022-08-04T07:10:06;6.93;;;4.00;;
74152;SDS011;62505;46.070;14.492;2022-08-04T07:12:34;6.25;;;4.13;;
74152;SDS011;62505;46.070;14.492;2022-08-04T07:15:02;5.20;;;4.63;;
74152;SDS011;62505;46.070;14.492;2022-08-04T07:17:31;9.80;;;4.55;;
74152;SDS011;62505;46.070;14.492;2022-08-04T07:20:00;6.15;;;4.43;;
74152;SDS011;62505;46.070;14.492;2022-08-04T07:22:27;7.47;;;4.20;;
74152;SDS011;62505;46.070;14.492;2022-08-04T07:24:54;6.53;;;4.50;;
74152;SDS011;62505;46.070;14.492;2022-08-04T07:27:22;6.15;;;4.38;;
74152;SDS011;62505;46.070;14.492;2022-08-04T07:29:50;5.50;;;4.03;;
74152;SDS011;62505;46.070;14.492;2022-08-04T07:32:19;6.38;;;4.05;;
74152;SDS011;62505;46.070;14.492;2022-08-04T07:34:48;7.57;;;3.90;;
74152;SDS011;62505;46.070;14.492;2022-08-04T07:37:16;9.15;;;4.40;;
74152;SDS011;62505;46.070;14.492;2022-08-04T07:39:43;5.65;;;4.05;;
74152;SDS011;62505;46.070;14.492;2022-08-04T07:42:10;5.30;;;3.72;;
74152;SDS011;62505;46.070;14.492;2022-08-04T07:44:38;4.47;;;3.78;;
74152;SDS011;62505;46.070;14.492;2022-08-04T07:47:05;5.60;;;4.05;;
74152;SDS011;62505;46.070;14.492;2022-08-04T07:49:33;4.43;;;3.70;;
74152;SDS011;62505;46.070;14.492;2022-08-04T07:52:02;5.18;;;3.70;;
74152;SDS011;62505;46.070;14.492;2022-08-04T07:54:29;5.18;;;3.80;;
74152;SDS011;62505;46.070;14.492;2022-08-04T07:56:58;5.30;;;3.97;;
74152;SDS011;62505;46.070;14.492;2022-08-04T07:59:25;7.00;;;3.97;;
74152;SDS011;62505;46.070;14.492;2022-08-04T08:01:52;4.50;;;3.60;;
74152;SDS011;62505;46.070;14.492;2022-08-04T08:04:20;5.38;;;3.65;;
74152;SDS011;62505;46.070;14.492;2022-08-04T08:06:48;5.38;;;3.83;;
74152;SDS011;62505;46.070;14.492;2022-08-04T08:09:18;4.05;;;3.33;;
74152;SDS011;62505;46.070;14.492;2022-08-04T08:11:47;6.03;;;3.85;;
74152;SDS011;62505;46.070;14.492;2022-08-04T08:14:17;6.30;;;3.85;;
74152;SDS011;62505;46.070;14.492;2022-08-04T08:16:45;5.03;;;3.78;;
74152;SDS011;62505;46.070;14.492;2022-08-04T08:19:13;6.78;;;4.13;;
74152;SDS011;62505;46.070;14.492;2022-08-04T08:21:41;7.25;;;3.65;;
74152;SDS011;62505;46.070;14.492;2022-08-04T08:24:13;5.05;;;3.97;;
74152;SDS011;62505;46.070;14.492;2022-08-04T08:26:42;4.78;;;3.75;;
74152;SDS011;62505;46.070;14.492;2022-08-04T08:29:09;7.00;;;4.28;;
74152;SDS011;62505;46.070;14.492;2022-08-04T08:31:36;6.65;;;3.55;;
74152;SDS011;62505;46.070;14.492;2022-08-04T08:34:03;4.25;;;3.60;;
74152;SDS011;62505;46.070;14.492;2022-08-04T08:36:33;3.55;;;3.22;;
74152;SDS011;62505;46.070;14.492;2022-08-04T08:39:04;4.35;;;3.58;;
74152;SDS011;62505;46.070;14.492;2022-08-04T08:44:42;5.15;;;3.13;;
74152;SDS011;62505;46.070;14.492;2022-08-04T08:47:28;4.65;;;3.38;;
74152;SDS011;62505;46.070;14.492;2022-08-04T08:50:09;5.95;;;3.40;;
74152;SDS011;62505;46.070;14.492;2022-08-04T08:53:12;3.90;;;3.47;;
74152;SDS011;62505;46.070;14.492;2022-08-04T08:56:01;6.20;;;3.92;;
74152;SDS011;62505;46.070;14.492;2022-08-04T08:58:47;5.20;;;3.33;;
74152;SDS011;62505;46.070;14.492;2022-08-04T09:01:30;5.30;;;3.33;;
74152;SDS011;62505;46.070;14.492;2022-08-04T09:04:21;4.35;;;3.38;;
74152;SDS011;62505;46.070;14.492;2022-08-04T09:07:22;5.82;;;3.10;;
74152;SDS011;62505;46.070;14.492;2022-08-04T09:10:11;3.80;;;3.10;;
74152;SDS011;62505;46.070;14.492;2022-08-04T09:12:44;3.75;;;3.17;;
74152;SDS011;62505;46.070;14.492;2022-08-04T09:15:20;6.03;;;3.60;;
74152;SDS011;62505;46.070;14.492;2022-08-04T09:17:53;4.00;;;3.20;;
74152;SDS011;62505;46.070;14.492;2022-08-04T09:20:30;4.95;;;3.30;;
74152;SDS011;62505;46.070;14.492;2022-08-04T09:23:05;6.53;;;3.50;;
74152;SDS011;62505;46.070;14.492;2022-08-04T09:25:39;5.93;;;3.47;;
74152;SDS011;62505;46.070;14.492;2022-08-04T09:28:15;5.80;;;3.20;;
74152;SDS011;62505;46.070;14.492;2022-08-04T09:30:48;3.55;;;3.22;;
74152;SDS011;62505;46.070;14.492;2022-08-04T09:33:23;3.72;;;3.40;;
74152;SDS011;62505;46.070;14.492;2022-08-04T09:36:00;6.95;;;3.25;;
74152;SDS011;62505;46.070;14.492;2022-08-04T09:38:34;4.22;;;3.38;;
74152;SDS011;62505;46.070;14.492;2022-08-04T09:41:12;3.80;;;3.40;;
74152;SDS011;62505;46.070;14.492;2022-08-04T09:43:51;4.70;;;3.15;;
74152;SDS011;62505;46.070;14.492;2022-08-04T09:46:29;4.78;;;3.30;;
74152;SDS011;62505;46.070;14.492;2022-08-04T09:49:01;4.97;;;3.20;;
74152;SDS011;62505;46.070;14.492;2022-08-04T09:51:37;3.47;;;3.03;;
74152;SDS011;62505;46.070;14.492;2022-08-04T09:54:15;4.95;;;3.55;;
74152;SDS011;62505;46.070;14.492;2022-08-04T09:56:51;6.22;;;3.40;;
74152;SDS011;62505;46.070;14.492;2022-08-04T09:59:34;3.83;;;3.35;;
74152;SDS011;62505;46.070;14.492;2022-08-04T10:02:10;5.20;;;3.50;;
74152;SDS011;62505;46.070;14.492;2022-08-04T10:04:41;5.05;;;3.75;;
74152;SDS011;62505;46.070;14.492;2022-08-04T10:07:14;5.55;;;3.08;;
74152;SDS011;62505;46.070;14.492;2022-08-04T10:09:51;4.80;;;3.38;;
74152;SDS011;62505;46.070;14.492;2022-08-04T10:12:28;3.60;;;3.15;;
74152;SDS011;62505;46.070;14.492;2022-08-04T10:15:12;9.07;;;3.38;;
74152;SDS011;62505;46.070;14.492;2022-08-04T10:20:40;8.13;;;3.17;;
74152;SDS011;62505;46.070;14.492;2022-08-04T10:23:14;4.35;;;3.45;;
74152;SDS011;62505;46.070;14.492;2022-08-04T10:25:48;3.97;;;3.28;;
74152;SDS011;62505;46.070;14.492;2022-08-04T10:28:27;4.40;;;3.13;;
74152;SDS011;62505;46.070;14.492;2022-08-04T10:31:00;3.47;;;3.08;;
74152;SDS011;62505;46.070;14.492;2022-08-04T10:33:38;4.97;;;3.05;;
74152;SDS011;62505;46.070;14.492;2022-08-04T10:36:10;5.53;;;3.28;;
74152;SDS011;62505;46.070;14.492;2022-08-04T10:38:45;4.78;;;3.67;;
74152;SDS011;62505;46.070;14.492;2022-08-04T10:41:23;4.88;;;3.20;;
74152;SDS011;62505;46.070;14.492;2022-08-04T10:43:57;5.55;;;3.05;;
74152;SDS011;62505;46.070;14.492;2022-08-04T10:46:34;4.82;;;3.15;;
74152;SDS011;62505;46.070;14.492;2022-08-04T10:49:08;4.40;;;3.42;;
74152;SDS011;62505;46.070;14.492;2022-08-04T10:51:40;4.90;;;3.10;;
74152;SDS011;62505;46.070;14.492;2022-08-04T10:54:12;4.05;;;3.28;;
74152;SDS011;62505;46.070;14.492;2022-08-04T10:56:43;4.10;;;3.15;;
74152;SDS011;62505;46.070;14.492;2022-08-04T10:59:17;4.32;;;3.17;;
74152;SDS011;62505;46.070;14.492;2022-08-04T11:01:54;3.35;;;2.90;;
74152;SDS011;62505;46.070;14.492;2022-08-04T11:04:30;4.95;;;3.10;;
74152;SDS011;62505;46.070;14.492;2022-08-04T11:07:06;3.15;;;2.85;;
74152;SDS011;62505;46.070;14.492;2022-08-04T11:09:35;3.65;;;3.28;;
74152;SDS011;62505;46.070;14.492;2022-08-04T11:12:05;4.55;;;3.17;;
74152;SDS011;62505;46.070;14.492;2022-08-04T11:14:36;5.38;;;3.50;;
74152;SDS011;62505;46.070;14.492;2022-08-04T11:17:08;4.82;;;2.80;;
74152;SDS011;62505;46.070;14.492;2022-08-04T11:19:43;4.38;;;2.92;;
74152;SDS011;62505;46.070;14.492;2022-08-04T11:22:14;4.97;;;3.03;;
74152;SDS011;62505;46.070;14.492;2022-08-04T11:24:49;5.50;;;3.30;;
74152;SDS011;62505;46.070;14.492;2022-08-04T11:27:23;3.78;;;2.80;;
74152;SDS011;62505;46.070;14.492;2022-08-04T11:29:55;6.30;;;3.20;;
74152;SDS011;62505;46.070;14.492;2022-08-04T11:32:30;5.00;;;3.20;;
74152;SDS011;62505;46.070;14.492;2022-08-04T11:35:05;4.95;;;3.20;;
74152;SDS011;62505;46.070;14.492;2022-08-04T11:37:35;3.83;;;2.80;;
74152;SDS011;62505;46.070;14.492;2022-08-04T11:40:11;3.28;;;2.78;;
74152;SDS011;62505;46.070;14.492;2022-08-04T11:42:49;5.53;;;3.03;;
74152;SDS011;62505;46.070;14.492;2022-08-04T11:45:19;4.85;;;3.00;;
74152;SDS011;62505;46.070;14.492;2022-08-04T11:47:54;4.32;;;3.17;;
74152;SDS011;62505;46.070;14.492;2022-08-04T11:50:28;6.15;;;3.28;;
74152;SDS011;62505;46.070;14.492;2022-08-04T11:53:02;4.60;;;3.15;;
74152;SDS011;62505;46.070;14.492;2022-08-04T11:55:31;4.57;;;2.78;;
74152;SDS011;62505;46.070;14.492;2022-08-04T11:58:00;3.90;;;3.00;;
74152;SDS011;62505;46.070;14.492;2022-08-04T12:00:28;4.10;;;3.30;;
74152;SDS011;62505;46.070;14.492;2022-08-04T12:03:05;3.25;;;2.70;;
74152;SDS011;62505;46.070;14.492;2022-08-04T12:05:43;3.47;;;3.00;;
74152;SDS011;62505;46.070;14.492;2022-08-04T12:08:21;3.53;;;2.65;;
74152;SDS011;62505;46.070;14.492;2022-08-04T12:11:00;3.65;;;3.25;;
74152;SDS011;62505;46.070;14.492;2022-08-04T12:13:38;3.22;;;2.83;;
74152;SDS011;62505;46.070;14.492;2022-08-04T12:16:13;3.47;;;2.83;;
74152;SDS011;62505;46.070;14.492;2022-08-04T12:18:44;5.00;;;3.30;;
74152;SDS011;62505;46.070;14.492;2022-08-04T12:21:23;3.67;;;2.65;;
74152;SDS011;62505;46.070;14.492;2022-08-04T12:23:56;3.22;;;2.58;;
74152;SDS011;62505;46.070;14.492;2022-08-04T12:26:28;3.50;;;3.20;;
74152;SDS011;62505;46.070;14.492;2022-08-04T12:29:00;3.80;;;2.92;;
74152;SDS011;62505;46.070;14.492;2022-08-04T12:31:30;2.95;;;2.58;;
74152;SDS011;62505;46.070;14.492;2022-08-04T12:34:03;6.40;;;3.13;;
74152;SDS011;62505;46.070;14.492;2022-08-04T12:36:36;4.75;;;2.97;;
74152;SDS011;62505;46.070;14.492;2022-08-04T12:39:09;3.55;;;2.80;;
74152;SDS011;62505;46.070;14.492;2022-08-04T12:41:41;5.85;;;3.00;;
74152;SDS011;62505;46.070;14.492;2022-08-04T12:44:17;4.50;;;3.13;;
74152;SDS011;62505;46.070;14.492;2022-08-04T12:46:46;3.40;;;2.65;;
74152;SDS011;62505;46.070;14.492;2022-08-04T12:49:14;3.22;;;2.72;;
74152;SDS011;62505;46.070;14.492;2022-08-04T12:51:43;2.90;;;2.60;;
74152;SDS011;62505;46.070;14.492;2022-08-04T12:54:11;3.90;;;2.67;;
74152;SDS011;62505;46.070;14.492;2022-08-04T12:56:46;3.08;;;2.60;;
74152;SDS011;62505;46.070;14.492;2022-08-04T12:59:13;3.47;;;2.65;;
74152;SDS011;62505;46.070;14.492;2022-08-04T13:01:44;3.28;;;2.67;;
74152;SDS011;62505;46.070;14.492;2022-08-04T13:04:14;3.08;;;2.75;;
74152;SDS011;62505;46.070;14.492;2022-08-04T13:06:50;3.00;;;2.80;;
74152;SDS011;62505;46.070;14.492;2022-08-04T13:09:20;3.90;;;2.85;;
74152;SDS011;62505;46.070;14.492;2022-08-04T13:11:52;3.20;;;2.53;;
74152;SDS011;62505;46.070;14.492;2022-08-04T13:14:22;3.13;;;2.70;;
74152;SDS011;62505;46.070;14.492;2022-08-04T13:16:57;3.22;;;2.65;;
74152;SDS011;62505;46.070;14.492;2022-08-04T13:19:25;3.55;;;2.67;;
74152;SDS011;62505;46.070;14.492;2022-08-04T13:21:54;3.03;;;2.38;;
74152;SDS011;62505;46.070;14.492;2022-08-04T13:24:24;2.67;;;2.40;;
74152;SDS011;62505;46.070;14.492;2022-08-04T13:26:54;3.45;;;2.55;;
74152;SDS011;62505;46.070;14.492;2022-08-04T13:29:24;3.45;;;3.05;;
74152;SDS011;62505;46.070;14.492;2022-08-04T13:32:04;3.25;;;2.55;;
74152;SDS011;62505;46.070;14.492;2022-08-04T13:34:32;3.30;;;2.80;;
74152;SDS011;62505;46.070;14.492;2022-08-04T13:37:02;3.40;;;3.10;;
74152;SDS011;62505;46.070;14.492;2022-08-04T13:39:29;2.90;;;2.60;;
74152;SDS011;62505;46.070;14.492;2022-08-04T13:41:58;2.75;;;2.55;;
74152;SDS011;62505;46.070;14.492;2022-08-04T13:44:29;4.50;;;2.58;;
74152;SDS011;62505;46.070;14.492;2022-08-04T13:46:58;3.38;;;2.50;;
74152;SDS011;62505;46.070;14.492;2022-08-04T13:49:28;4.15;;;2.67;;
74152;SDS011;62505;46.070;14.492;2022-08-04T13:51:57;3.33;;;2.88;;
74152;SDS011;62505;46.070;14.492;2022-08-04T13:54:26;4.72;;;2.45;;
74152;SDS011;62505;46.070;14.492;2022-08-04T13:57:01;3.97;;;2.30;;
74152;SDS011;62505;46.070;14.492;2022-08-04T13:59:35;3.05;;;2.50;;
74152;SDS011;62505;46.070;14.492;2022-08-04T14:02:04;5.00;;;2.67;;
74152;SDS011;62505;46.070;14.492;2022-08-04T14:04:35;3.67;;;2.60;;
74152;SDS011;62505;46.070;14.492;2022-08-04T14:07:09;3.00;;;2.70;;
74152;SDS011;62505;46.070;14.492;2022-08-04T14:09:40;5.43;;;2.72;;
74152;SDS011;62505;46.070;14.492;2022-08-04T14:12:08;3.42;;;2.50;;
74152;SDS011;62505;46.070;14.492;2022-08-04T14:14:42;4.22;;;2.80;;
74152;SDS011;62505;46.070;14.492;2022-08-04T14:17:14;3.10;;;2.25;;
74152;SDS011;62505;46.070;14.492;2022-08-04T14:19:50;3.08;;;2.70;;
74152;SDS011;62505;46.070;14.492;2022-08-04T14:22:29;3.45;;;2.53;;
74152;SDS011;62505;46.070;14.492;2022-08-04T14:25:01;2.50;;;2.30;;
74152;SDS011;62505;46.070;14.492;2022-08-04T14:27:39;3.75;;;2.40;;
74152;SDS011;62505;46.070;14.492;2022-08-04T14:30:18;2.97;;;2.65;;
74152;SDS011;62505;46.070;14.492;2022-08-04T14:32:54;3.17;;;2.47;;
74152;SDS011;62505;46.070;14.492;2022-08-04T14:35:22;3.60;;;2.63;;
74152;SDS011;62505;46.070;14.492;2022-08-04T14:37:53;2.80;;;2.47;;
74152;SDS011;62505;46.070;14.492;2022-08-04T14:40:22;2.83;;;2.35;;
74152;SDS011;62505;46.070;14.492;2022-08-04T14:42:51;3.08;;;2.30;;
74152;SDS011;62505;46.070;14.492;2022-08-04T14:45:18;3.22;;;2.60;;
74152;SDS011;62505;46.070;14.492;2022-08-04T14:47:53;2.50;;;2.30;;
74152;SDS011;62505;46.070;14.492;2022-08-04T14:50:20;2.53;;;2.33;;
74152;SDS011;62505;46.070;14.492;2022-08-04T14:53:01;2.78;;;2.47;;
74152;SDS011;62505;46.070;14.492;2022-08-04T14:55:30;2.63;;;2.42;;
74152;SDS011;62505;46.070;14.492;2022-08-04T14:57:57;2.80;;;2.60;;
74152;SDS011;62505;46.070;14.492;2022-08-04T15:00:25;3.67;;;2.40;;
74152;SDS011;62505;46.070;14.492;2022-08-04T15:02:59;2.67;;;2.35;;
74152;SDS011;62505;46.070;14.492;2022-08-04T15:05:28;2.83;;;2.60;;
74152;SDS011;62505;46.070;14.492;2022-08-04T15:07:55;2.75;;;2.10;;
74152;SDS011;62505;46.070;14.492;2022-08-04T15:10:23;2.47;;;2.28;;
74152;SDS011;62505;46.070;14.492;2022-08-04T15:12:52;3.45;;;2.70;;
74152;SDS011;62505;46.070;14.492;2022-08-04T15:15:20;2.20;;;2.00;;
74152;SDS011;62505;46.070;14.492;2022-08-04T15:17:47;2.50;;;2.30;;
74152;SDS011;62505;46.070;14.492;2022-08-04T15:20:15;2.88;;;2.33;;
74152;SDS011;62505;46.070;14.492;2022-08-04T15:22:42;2.15;;;1.90;;
74152;SDS011;62505;46.070;14.492;2022-08-04T15:25:09;3.42;;;2.42;;
74152;SDS011;62505;46.070;14.492;2022-08-04T15:27:37;2.53;;;2.33;;
74152;SDS011;62505;46.070;14.492;2022-08-04T15:30:07;3.08;;;2.67;;
74152;SDS011;62505;46.070;14.492;2022-08-04T15:32:37;3.33;;;2.40;;
74152;SDS011;62505;46.070;14.492;2022-08-04T15:35:08;2.22;;;2.05;;
74152;SDS011;62505;46.070;14.492;2022-08-04T15:37:38;2.65;;;2.45;;
74152;SDS011;62505;46.070;14.492;2022-08-04T15:40:12;2.60;;;2.40;;
74152;SDS011;62505;46.070;14.492;2022-08-04T15:42:43;2.53;;;2.25;;
74152;SDS011;62505;46.070;14.492;2022-08-04T15:45:21;2.55;;;2.10;;
74152;SDS011;62505;46.070;14.492;2022-08-04T15:50:59;2.83;;;2.53;;
74152;SDS011;62505;46.070;14.492;2022-08-04T15:53:35;3.45;;;2.40;;
74152;SDS011;62505;46.070;14.492;2022-08-04T15:56:46;4.47;;;2.45;;
74152;SDS011;62505;46.070;14.492;2022-08-04T15:59:14;2.28;;;2.13;;
74152;SDS011;62505;46.070;14.492;2022-08-04T16:01:42;2.55;;;2.35;;